createdAt,value
2023-05-15T00:00:27.818Z,99109.66
2023-05-15T00:01:59.949Z,99118.44
2023-05-15T00:03:34.818Z,99117.66
2023-05-15T00:05:08.239Z,99109.94
2023-05-15T00:06:41.444Z,99113.47
2023-05-15T00:08:14.718Z,99106.22
2023-05-15T00:09:48.294Z,99106.13
2023-05-15T00:11:23.609Z,99101.25
2023-05-15T00:12:56.745Z,99100.72
2023-05-15T00:14:29.863Z,99095.47
2023-05-15T00:16:03.247Z,99091.19
2023-05-15T00:17:36.483Z,99086.91
2023-05-15T00:19:11.126Z,99089.84
2023-05-15T00:20:44.445Z,99102.03
2023-05-15T00:22:17.778Z,99101.06
2023-05-15T00:23:54.021Z,99105.47
2023-05-15T00:25:26.433Z,99099.47
2023-05-15T00:27:00.547Z,99101.16
2023-05-15T00:28:33.846Z,99096.03
2023-05-15T00:30:10.834Z,99106.72
2023-05-15T00:31:44.001Z,99112.06
2023-05-15T00:33:17.232Z,99105.66
2023-05-15T00:34:51.930Z,99100.31
2023-05-15T00:36:26.031Z,99090.41
2023-05-15T00:37:59.176Z,99084.13
2023-05-15T00:39:32.325Z,99078.81
2023-05-15T00:41:07.637Z,99071.91
2023-05-15T00:42:42.140Z,99066.97
2023-05-15T00:44:19.238Z,99063.75
2023-05-15T00:45:53.626Z,99043.16
2023-05-15T00:47:28.265Z,99042.19
2023-05-15T00:49:02.308Z,99046.38
2023-05-15T00:50:36.701Z,99037.81
2023-05-15T00:52:12.121Z,99040.56
2023-05-15T00:53:45.663Z,99030.75
2023-05-15T00:55:17.923Z,99030.94
2023-05-15T00:56:52.677Z,99027.88
2023-05-15T00:58:28.169Z,99028.69
2023-05-15T01:00:04.881Z,99028.44
2023-05-15T01:01:38.371Z,99027.97
2023-05-15T01:03:11.963Z,99041.03
2023-05-15T01:04:44.269Z,99041.69
2023-05-15T01:06:19.360Z,99050.47
2023-05-15T01:08:02.406Z,99041.50
2023-05-15T01:09:37.009Z,99045.88
2023-05-15T01:11:11.061Z,99048.53
2023-05-15T01:12:46.096Z,99046.66
2023-05-15T01:14:19.283Z,99050.09
2023-05-15T01:15:52.460Z,99045.47
2023-05-15T01:17:26.518Z,99055.09
2023-05-15T01:18:59.437Z,99053.00
2023-05-15T01:20:42.207Z,99054.72
2023-05-15T01:22:42.535Z,99047.31
2023-05-15T01:24:34.847Z,99035.13
2023-05-15T01:26:40.739Z,99026.16
2023-05-15T01:28:19.093Z,99014.16
2023-05-15T01:30:01.593Z,99006.53
2023-05-15T01:31:38.339Z,99010.06
2023-05-15T01:33:19.683Z,99003.06
2023-05-15T01:35:03.145Z,99010.13
2023-05-15T01:36:40.690Z,99016.38
2023-05-15T01:38:25.202Z,99025.34
2023-05-15T01:40:04.708Z,99027.06
2023-05-15T01:41:46.650Z,99030.53
2023-05-15T01:43:28.441Z,99014.63
2023-05-15T01:45:05.132Z,99021.41
2023-05-15T01:46:44.056Z,99025.50
2023-05-15T01:48:21.112Z,99020.81
2023-05-15T01:49:57.204Z,99014.53
2023-05-15T01:51:31.728Z,99018.94
2023-05-15T01:53:05.337Z,99024.06
2023-05-15T01:54:40.235Z,99030.25
2023-05-15T01:56:15.812Z,99026.53
2023-05-15T01:57:51.609Z,99024.06
2023-05-15T01:59:26.531Z,99026.84
2023-05-15T02:01:01.171Z,99029.78
2023-05-15T02:02:33.833Z,99022.94
2023-05-15T02:04:07.916Z,99021.00
2023-05-15T02:05:41.763Z,99012.44
2023-05-15T02:07:14.943Z,99012.81
2023-05-15T02:08:49.374Z,99006.63
2023-05-15T02:10:23.551Z,99024.38
2023-05-15T02:12:01.306Z,99028.28
2023-05-15T02:13:36.397Z,99030.84
2023-05-15T02:15:12.662Z,99039.63
2023-05-15T02:16:47.420Z,99039.44
2023-05-15T02:18:20.737Z,99042.91
2023-05-15T02:19:53.850Z,99042.91
2023-05-15T02:21:27.228Z,99046.50
2023-05-15T02:23:00.659Z,99056.44
2023-05-15T02:24:34.757Z,99048.53
2023-05-15T02:26:27.126Z,99047.34
2023-05-15T02:28:04.679Z,99038.53
2023-05-15T02:29:48.487Z,99028.59
2023-05-15T02:31:31.682Z,99024.38
2023-05-15T02:33:14.202Z,99022.47
2023-05-15T02:34:56.854Z,99019.31
2023-05-15T02:36:34.071Z,99016.31
2023-05-15T02:38:10.586Z,99004.84
2023-05-15T02:39:46.710Z,99000.31
2023-05-15T02:41:21.086Z,98993.06
2023-05-15T02:42:54.667Z,98999.59
2023-05-15T02:44:29.329Z,99011.34
2023-05-15T02:46:05.109Z,99008.88
2023-05-15T02:47:40.720Z,99018.47
2023-05-15T02:49:14.744Z,99023.47
2023-05-15T02:50:48.269Z,99028.56
2023-05-15T02:52:21.444Z,99022.25
2023-05-15T02:53:56.511Z,99026.69
2023-05-15T02:55:29.690Z,99035.63
2023-05-15T02:57:02.947Z,99030.31
2023-05-15T02:58:35.814Z,99032.91
2023-05-15T03:00:11.835Z,99027.75
2023-05-15T03:01:44.170Z,99028.06
2023-05-15T03:03:19.060Z,99026.38
2023-05-15T03:04:52.353Z,99025.34
2023-05-15T03:06:25.815Z,99015.38
2023-05-15T03:07:59.151Z,99018.63
2023-05-15T03:09:32.520Z,99020.34
2023-05-15T03:11:05.427Z,99032.69
2023-05-15T03:12:39.942Z,99023.78
2023-05-15T03:14:13.036Z,99027.38
2023-05-15T03:15:46.638Z,99025.25
2023-05-15T03:17:18.857Z,99028.25
2023-05-15T03:18:53.667Z,99022.91
2023-05-15T03:20:25.926Z,99015.13
2023-05-15T03:21:59.216Z,99022.34
2023-05-15T03:23:32.268Z,99016.06
2023-05-15T03:25:05.889Z,99031.69
2023-05-15T03:26:38.084Z,99030.47
2023-05-15T03:28:11.694Z,99039.06
2023-05-15T03:29:45.055Z,99030.13
2023-05-15T03:31:18.261Z,99027.19
2023-05-15T03:32:50.631Z,99033.88
2023-05-15T03:34:25.555Z,99031.63
2023-05-15T03:35:58.880Z,99031.31
2023-05-15T03:37:32.032Z,99032.84
2023-05-15T03:39:05.935Z,99040.66
2023-05-15T03:40:39.861Z,99032.50
2023-05-15T03:42:12.988Z,99032.09
2023-05-15T03:43:47.146Z,99038.63
2023-05-15T03:45:24.235Z,99041.78
2023-05-15T03:46:57.896Z,99050.28
2023-05-15T03:48:31.153Z,99050.88
2023-05-15T03:50:06.301Z,99051.47
2023-05-15T03:51:39.774Z,99045.69
2023-05-15T03:53:13.173Z,99035.84
2023-05-15T03:54:46.504Z,99033.19
2023-05-15T03:56:19.690Z,99039.41
2023-05-15T03:57:53.332Z,99025.97
2023-05-15T03:59:26.552Z,99017.59
2023-05-15T04:00:59.752Z,99019.88
2023-05-15T04:02:31.921Z,99016.97
2023-05-15T04:04:05.272Z,99001.69
2023-05-15T04:05:39.937Z,98999.56
2023-05-15T04:07:13.108Z,98996.22
2023-05-15T04:08:46.300Z,99000.53
2023-05-15T04:10:20.494Z,98997.78
2023-05-15T04:11:52.857Z,99008.31
2023-05-15T04:13:26.084Z,99010.97
2023-05-15T04:15:00.857Z,99011.19
2023-05-15T04:16:34.252Z,99013.94
2023-05-15T04:18:07.667Z,99012.19
2023-05-15T04:19:41.099Z,99015.47
2023-05-15T04:21:17.072Z,99013.47
2023-05-15T04:22:50.705Z,99011.59
2023-05-15T04:24:22.971Z,99015.78
2023-05-15T04:25:57.063Z,99020.94
2023-05-15T04:27:30.284Z,99023.50
2023-05-15T04:29:04.713Z,99020.75
2023-05-15T04:30:40.451Z,99023.81
2023-05-15T04:32:12.943Z,99019.66
2023-05-15T04:33:46.174Z,99021.00
2023-05-15T04:35:18.306Z,99033.41
2023-05-15T04:36:52.935Z,99028.81
2023-05-15T04:38:26.095Z,99043.38
2023-05-15T04:39:58.222Z,99051.47
2023-05-15T04:41:33.262Z,99047.66
2023-05-15T04:43:06.713Z,99049.00
2023-05-15T04:44:38.889Z,99046.94
2023-05-15T04:46:12.090Z,99058.91
2023-05-15T04:47:44.267Z,99055.25
2023-05-15T04:49:17.544Z,99053.41
2023-05-15T04:50:51.221Z,99048.25
2023-05-15T04:52:26.059Z,99047.25
2023-05-15T04:53:59.178Z,99049.59
2023-05-15T04:55:33.667Z,99051.13
2023-05-15T04:57:07.675Z,99054.38
2023-05-15T04:58:40.869Z,99043.91
2023-05-15T05:00:15.341Z,99045.34
2023-05-15T05:01:48.957Z,99037.81
2023-05-15T05:03:22.702Z,99038.00
2023-05-15T05:04:54.944Z,99032.28
2023-05-15T05:06:29.805Z,99039.88
2023-05-15T05:08:05.245Z,99046.75
2023-05-15T05:09:39.425Z,99042.00
2023-05-15T05:11:12.568Z,99046.47
2023-05-15T05:12:45.703Z,99034.91
2023-05-15T05:14:19.127Z,99025.78
2023-05-15T05:15:52.261Z,99040.06
2023-05-15T05:17:24.606Z,99054.03
2023-05-15T05:18:58.019Z,99046.75
2023-05-15T05:20:31.419Z,99045.50
2023-05-15T05:22:06.038Z,99050.00
2023-05-15T05:23:40.969Z,99051.72
2023-05-15T05:25:14.142Z,99048.28
2023-05-15T05:26:47.461Z,99044.25
2023-05-15T05:28:20.649Z,99050.91
2023-05-15T05:29:54.540Z,99045.00
2023-05-15T05:31:27.767Z,99052.31
2023-05-15T05:33:01.238Z,99050.84
2023-05-15T05:34:34.475Z,99048.53
2023-05-15T05:36:08.277Z,99056.25
2023-05-15T05:37:41.638Z,99048.47
2023-05-15T05:39:17.332Z,99044.97
2023-05-15T05:40:51.078Z,99042.63
2023-05-15T05:42:24.275Z,99040.72
2023-05-15T05:43:56.458Z,99035.56
2023-05-15T05:45:30.373Z,99032.38
2023-05-15T05:47:03.642Z,99034.16
2023-05-15T05:48:37.111Z,99037.16
2023-05-15T05:50:10.860Z,99031.69
2023-05-15T05:51:44.142Z,99029.56
2023-05-15T05:53:17.398Z,99029.66
2023-05-15T05:54:51.925Z,99028.22
2023-05-15T05:56:26.782Z,99035.88
2023-05-15T05:58:00.217Z,99034.69
2023-05-15T05:59:33.397Z,99040.63
2023-05-15T06:01:07.140Z,99039.34
2023-05-15T06:02:41.334Z,99047.09
2023-05-15T06:04:17.594Z,99028.41
2023-05-15T06:05:51.546Z,99017.13
2023-05-15T06:07:24.724Z,99022.69
2023-05-15T06:08:57.825Z,99020.50
2023-05-15T06:10:32.319Z,99013.59
2023-05-15T06:12:08.120Z,99007.56
2023-05-15T06:13:40.999Z,99001.38
2023-05-15T06:15:14.647Z,99002.97
2023-05-15T06:16:47.967Z,99008.16
2023-05-15T06:18:21.178Z,99008.31
2023-05-15T06:19:55.541Z,99009.31
2023-05-15T06:21:28.730Z,99002.91
2023-05-15T06:23:01.000Z,98997.97
2023-05-15T06:24:34.188Z,98999.97
2023-05-15T06:26:08.699Z,98999.81
2023-05-15T06:27:42.732Z,98999.91
2023-05-15T06:29:16.087Z,98990.56
2023-05-15T06:30:49.289Z,98985.47
2023-05-15T06:32:22.526Z,98982.72
2023-05-15T06:33:55.611Z,98985.06
2023-05-15T06:35:28.854Z,98996.66
2023-05-15T06:37:02.593Z,99002.06
2023-05-15T06:38:36.160Z,98990.31
2023-05-15T06:40:10.828Z,98988.91
2023-05-15T06:41:45.626Z,98987.75
2023-05-15T06:43:19.126Z,98995.03
2023-05-15T06:44:52.240Z,99007.28
2023-05-15T06:46:25.612Z,98993.75
2023-05-15T06:48:01.619Z,98986.06
2023-05-15T06:49:35.201Z,98983.25
2023-05-15T06:51:08.559Z,98986.81
2023-05-15T06:52:41.795Z,98988.78
2023-05-15T06:54:15.526Z,98986.06
2023-05-15T06:55:48.689Z,98977.97
2023-05-15T06:57:23.378Z,98987.09
2023-05-15T06:58:56.647Z,98984.09
2023-05-15T07:00:30.215Z,98976.25
2023-05-15T07:02:03.460Z,98981.81
2023-05-15T07:03:36.812Z,98978.94
2023-05-15T07:05:10.523Z,98972.22
2023-05-15T07:06:44.588Z,98973.66
2023-05-15T07:08:17.764Z,98979.03
2023-05-15T07:09:51.008Z,98963.31
2023-05-15T07:11:24.271Z,98953.47
2023-05-15T07:12:58.870Z,98951.28
2023-05-15T07:14:32.014Z,98954.56
2023-05-15T07:16:05.737Z,98946.78
2023-05-15T07:17:39.078Z,98935.53
2023-05-15T07:19:12.566Z,98939.66
2023-05-15T07:20:45.753Z,98931.66
2023-05-15T07:22:18.952Z,98931.66
2023-05-15T07:23:52.033Z,98927.03
2023-05-15T07:25:26.208Z,98933.34
2023-05-15T07:27:00.359Z,98932.22
2023-05-15T07:28:34.871Z,98931.53
2023-05-15T07:30:09.303Z,98935.13
2023-05-15T07:31:44.810Z,98929.69
2023-05-15T07:33:17.996Z,98930.97
2023-05-15T07:34:51.273Z,98930.81
2023-05-15T07:36:24.496Z,98920.59
2023-05-15T07:37:57.854Z,98926.84
2023-05-15T07:39:31.084Z,98929.16
2023-05-15T07:41:04.358Z,98924.00
2023-05-15T07:42:37.676Z,98926.56
2023-05-15T07:44:12.465Z,98917.75
2023-05-15T07:45:45.761Z,98912.94
2023-05-15T07:47:19.005Z,98914.63
2023-05-15T07:48:52.117Z,98922.06
2023-05-15T07:50:25.932Z,98926.56
2023-05-15T07:51:59.133Z,98927.31
2023-05-15T07:53:33.355Z,98919.75
2023-05-15T07:55:07.631Z,98925.97
2023-05-15T07:56:41.602Z,98925.16
2023-05-15T07:58:14.767Z,98925.72
2023-05-15T07:59:49.227Z,98925.16
2023-05-15T08:01:22.355Z,98914.63
2023-05-15T08:02:55.757Z,98912.53
2023-05-15T08:04:29.113Z,98903.25
2023-05-15T08:06:02.273Z,98918.84
2023-05-15T08:07:36.343Z,98912.84
2023-05-15T08:09:09.742Z,98893.38
2023-05-15T08:10:42.855Z,98905.06
2023-05-15T08:12:20.842Z,98901.44
2023-05-15T08:13:54.260Z,98915.69
2023-05-15T08:15:29.309Z,98921.75
2023-05-15T08:17:02.504Z,98917.84
2023-05-15T08:18:35.679Z,98931.22
2023-05-15T08:20:09.913Z,98924.59
2023-05-15T08:21:43.370Z,98931.56
2023-05-15T08:23:16.596Z,98923.00
2023-05-15T08:24:49.771Z,98922.31
2023-05-15T08:26:22.914Z,98929.06
2023-05-15T08:27:56.404Z,98935.19
2023-05-15T08:29:29.585Z,98942.94
2023-05-15T08:31:04.146Z,98943.91
2023-05-15T08:32:37.324Z,98950.03
2023-05-15T08:34:10.935Z,98954.06
2023-05-15T08:35:44.181Z,98957.44
2023-05-15T08:37:17.275Z,98960.63
2023-05-15T08:38:50.337Z,98969.53
2023-05-15T08:40:34.799Z,98960.66
2023-05-15T08:42:19.513Z,98965.22
2023-05-15T08:43:56.535Z,98954.31
2023-05-15T08:45:30.574Z,98946.81
2023-05-15T08:47:06.758Z,98940.56
2023-05-15T08:48:43.205Z,98951.25
2023-05-15T08:50:17.887Z,98942.28
2023-05-15T08:51:51.556Z,98937.47
2023-05-15T08:53:25.573Z,98936.41
2023-05-15T08:54:59.894Z,98933.84
2023-05-15T08:56:33.441Z,98931.19
2023-05-15T08:58:06.932Z,98927.03
2023-05-15T08:59:40.152Z,98926.09
2023-05-15T09:01:15.357Z,98919.63
2023-05-15T09:02:49.986Z,98927.69
2023-05-15T09:04:23.583Z,98924.84
2023-05-15T09:05:57.378Z,98923.13
2023-05-15T09:07:31.648Z,98925.03
2023-05-15T09:09:06.404Z,98911.97
2023-05-15T09:10:40.648Z,98910.13
2023-05-15T09:12:16.722Z,98912.06
2023-05-15T09:13:49.863Z,98913.78
2023-05-15T09:15:26.211Z,98908.94
2023-05-15T09:17:00.315Z,98917.78
2023-05-15T09:18:35.401Z,98908.97
2023-05-15T09:20:25.325Z,98910.41
2023-05-15T09:22:16.946Z,98916.38
2023-05-15T09:23:50.166Z,98910.66
2023-05-15T09:25:39.831Z,98906.13
2023-05-15T09:27:12.965Z,98920.19
2023-05-15T09:28:46.488Z,98917.00
2023-05-15T09:30:21.377Z,98923.09
2023-05-15T09:31:54.736Z,98925.03
2023-05-15T09:33:33.535Z,98923.25
2023-05-15T09:35:29.968Z,98925.22
2023-05-15T09:37:07.019Z,98929.25
2023-05-15T09:38:42.798Z,98927.44
2023-05-15T09:40:20.151Z,98929.66
2023-05-15T09:41:53.864Z,98932.84
2023-05-15T09:43:30.076Z,98938.66
2023-05-15T09:45:04.116Z,98934.69
2023-05-15T09:46:37.814Z,98931.84
2023-05-15T09:48:12.051Z,98921.25
2023-05-15T09:49:47.025Z,98922.00
2023-05-15T09:51:22.250Z,98926.81
2023-05-15T09:52:55.667Z,98931.75
2023-05-15T09:54:30.105Z,98939.81
2023-05-15T09:56:04.516Z,98928.03
2023-05-15T09:57:38.845Z,98923.66
2023-05-15T09:59:15.672Z,98924.00
2023-05-15T10:00:49.654Z,98920.19
2023-05-15T10:02:28.531Z,98925.41
2023-05-15T10:04:03.685Z,98922.88
2023-05-15T10:05:43.685Z,98920.19
2023-05-15T10:07:28.906Z,98911.31
2023-05-15T10:09:04.063Z,98913.28
2023-05-15T10:10:37.249Z,98915.59
2023-05-15T10:12:11.100Z,98917.97
2023-05-15T10:13:44.388Z,98914.25
2023-05-15T10:15:18.928Z,98909.75
2023-05-15T10:16:52.473Z,98906.16
2023-05-15T10:18:28.741Z,98908.38
2023-05-15T10:20:07.077Z,98913.06
2023-05-15T10:21:41.771Z,98902.44
2023-05-15T10:23:18.415Z,98900.66
2023-05-15T10:24:58.334Z,98900.03
2023-05-15T10:26:37.622Z,98891.31
2023-05-15T10:28:12.653Z,98890.00
2023-05-15T10:29:47.550Z,98881.91
2023-05-15T10:31:21.825Z,98884.59
2023-05-15T10:32:57.060Z,98874.41
2023-05-15T10:34:30.352Z,98872.69
2023-05-15T10:36:04.673Z,98878.81
2023-05-15T10:37:38.141Z,98877.19
2023-05-15T10:39:13.053Z,98888.03
2023-05-15T10:40:46.858Z,98885.28
2023-05-15T10:42:21.246Z,98885.59
2023-05-15T10:43:55.275Z,98894.00
2023-05-15T10:45:30.267Z,98885.88
2023-05-15T10:47:05.834Z,98885.88
2023-05-15T10:48:40.248Z,98878.78
2023-05-15T10:50:14.735Z,98886.88
2023-05-15T10:51:47.871Z,98880.09
2023-05-15T10:53:21.622Z,98871.78
2023-05-15T10:54:56.948Z,98871.41
2023-05-15T10:56:31.793Z,98870.56
2023-05-15T10:58:10.350Z,98879.03
2023-05-15T10:59:44.240Z,98880.03
2023-05-15T11:01:28.091Z,98880.22
2023-05-15T11:03:02.165Z,98878.22
2023-05-15T11:04:36.160Z,98878.53
2023-05-15T11:06:10.926Z,98875.34
2023-05-15T11:07:44.108Z,98871.84
2023-05-15T11:09:41.307Z,98868.66
2023-05-15T11:11:48.056Z,98869.84
2023-05-15T11:13:22.690Z,98872.47
2023-05-15T11:15:21.734Z,98874.25
2023-05-15T11:16:59.031Z,98879.53
2023-05-15T11:18:32.283Z,98870.72
2023-05-15T11:20:06.212Z,98874.06
2023-05-15T11:21:47.534Z,98865.22
2023-05-15T11:23:23.423Z,98847.00
2023-05-15T11:25:00.403Z,98851.47
2023-05-15T11:26:43.097Z,98850.41
2023-05-15T11:28:25.657Z,98853.81
2023-05-15T11:30:13.333Z,98836.72
2023-05-15T11:31:46.612Z,98835.41
2023-05-15T11:33:21.986Z,98826.72
2023-05-15T11:35:01.391Z,98818.66
2023-05-15T11:36:35.815Z,98826.16
2023-05-15T11:38:15.281Z,98832.03
2023-05-15T11:39:49.070Z,98838.28
2023-05-15T11:41:27.607Z,98833.44
2023-05-15T11:43:02.939Z,98835.72
2023-05-15T11:44:38.927Z,98845.69
2023-05-15T11:46:14.296Z,98844.00
2023-05-15T11:47:47.518Z,98846.75
2023-05-15T11:49:21.422Z,98838.50
2023-05-15T11:50:54.839Z,98835.53
2023-05-15T11:52:29.114Z,98837.38
2023-05-15T11:54:05.698Z,98832.44
2023-05-15T11:55:41.419Z,98838.38
2023-05-15T11:57:14.793Z,98838.22
2023-05-15T11:58:49.996Z,98819.06
2023-05-15T12:00:25.518Z,98823.03
2023-05-15T12:02:00.851Z,98830.72
2023-05-15T12:03:36.393Z,98830.72
2023-05-15T12:05:10.577Z,98828.56
2023-05-15T12:06:47.380Z,98824.72
2023-05-15T12:08:21.598Z,98822.72
2023-05-15T12:09:55.163Z,98815.41
2023-05-15T12:11:28.286Z,98815.25
2023-05-15T12:13:01.654Z,98820.63
2023-05-15T12:14:34.797Z,98819.66
2023-05-15T12:16:09.503Z,98806.72
2023-05-15T12:17:43.143Z,98821.81
2023-05-15T12:19:16.611Z,98827.22
2023-05-15T12:20:52.787Z,98832.34
2023-05-15T12:22:25.903Z,98830.50
2023-05-15T12:25:37.434Z,98822.63
2023-05-15T12:27:12.638Z,98833.72
2023-05-15T12:28:45.992Z,98841.28
2023-05-15T12:30:20.167Z,98845.75
2023-05-15T12:31:55.089Z,98854.31
2023-05-15T12:33:28.530Z,98854.34
2023-05-15T12:35:02.160Z,98867.84
2023-05-15T12:36:35.401Z,98870.13
2023-05-15T12:38:08.871Z,98872.09
2023-05-15T12:39:52.106Z,98863.81
2023-05-15T12:41:29.112Z,98849.66
2023-05-15T12:43:07.754Z,98849.75
2023-05-15T12:44:41.287Z,98846.75
2023-05-15T12:46:15.552Z,98850.47
2023-05-15T12:47:52.018Z,98846.53
2023-05-15T12:49:25.342Z,98846.53
2023-05-15T12:51:06.255Z,98853.63
2023-05-15T12:52:39.375Z,98857.34
2023-05-15T12:54:19.350Z,98862.75
2023-05-15T12:55:52.729Z,98877.97
2023-05-15T12:57:26.142Z,98893.22
2023-05-15T12:58:59.565Z,98897.97
2023-05-15T13:00:33.127Z,98901.09
2023-05-15T13:02:10.374Z,98899.94
2023-05-15T13:03:45.308Z,98890.50
2023-05-15T13:05:18.703Z,98887.38
2023-05-15T13:06:52.696Z,98890.94
2023-05-15T13:08:25.978Z,98888.47
2023-05-15T13:10:07.789Z,98905.81
2023-05-15T13:11:45.057Z,98905.72
2023-05-15T13:13:18.311Z,98898.50
2023-05-15T13:14:51.370Z,98901.31
2023-05-15T13:16:29.595Z,98888.31
2023-05-15T13:18:04.190Z,98889.06
2023-05-15T13:19:38.769Z,98894.81
2023-05-15T13:21:11.994Z,98889.41
2023-05-15T13:22:45.482Z,98888.09
2023-05-15T13:24:18.599Z,98888.44
2023-05-15T13:25:51.934Z,98886.13
2023-05-15T13:27:25.350Z,98888.44
2023-05-15T13:28:58.566Z,98891.31
2023-05-15T13:30:33.326Z,98889.00
2023-05-15T13:32:07.627Z,98877.00
2023-05-15T13:33:40.972Z,98860.06
2023-05-15T13:35:16.605Z,98839.72
2023-05-15T13:36:49.741Z,98813.28
2023-05-15T13:38:22.925Z,98793.03
2023-05-15T13:39:56.043Z,98777.13
2023-05-15T13:41:29.527Z,98780.81
2023-05-15T13:43:02.653Z,98789.63
2023-05-15T13:44:37.724Z,98799.50
2023-05-15T13:46:10.898Z,98804.28
2023-05-15T13:47:44.676Z,98810.25
2023-05-15T13:49:17.901Z,98807.34
2023-05-15T13:50:52.543Z,98816.19
2023-05-15T13:52:25.709Z,98824.38
2023-05-15T13:53:59.046Z,98825.81
2023-05-15T13:55:32.188Z,98806.84
2023-05-15T13:57:05.915Z,98821.09
2023-05-15T13:58:40.513Z,98799.44
2023-05-15T14:00:15.041Z,98799.59
2023-05-15T14:01:48.634Z,98801.81
2023-05-15T14:03:21.882Z,98799.63
2023-05-15T14:04:55.803Z,98780.97
2023-05-15T14:06:33.553Z,98782.16
2023-05-15T14:08:07.209Z,98768.63
2023-05-15T14:09:40.361Z,98751.66
2023-05-15T14:11:13.561Z,98743.69
2023-05-15T14:12:47.244Z,98734.63
2023-05-15T14:14:20.391Z,98739.19
2023-05-15T14:15:54.033Z,98731.94
2023-05-15T14:17:27.933Z,98729.44
2023-05-15T14:19:01.324Z,98735.91
2023-05-15T14:20:34.475Z,98729.63
2023-05-15T14:22:09.069Z,98739.31
2023-05-15T14:23:42.264Z,98749.63
2023-05-15T14:25:15.442Z,98756.53
2023-05-15T14:26:48.650Z,98766.06
2023-05-15T14:28:21.794Z,98767.94
2023-05-15T14:29:56.887Z,98779.13
2023-05-15T14:31:30.302Z,98802.16
2023-05-15T14:33:03.638Z,98803.22
2023-05-15T14:34:37.095Z,98796.13
2023-05-15T14:36:10.444Z,98804.59
2023-05-15T14:37:45.339Z,98814.47
2023-05-15T14:39:19.735Z,98809.72
2023-05-15T14:40:52.986Z,98817.53
2023-05-15T14:42:27.205Z,98822.41
2023-05-15T14:44:00.874Z,98821.19
2023-05-15T14:45:34.009Z,98825.25
2023-05-15T14:47:08.661Z,98828.94
2023-05-15T14:48:41.807Z,98830.59
2023-05-15T14:50:15.098Z,98834.28
2023-05-15T14:51:48.166Z,98833.09
2023-05-15T14:53:22.812Z,98831.56
2023-05-15T14:55:07.824Z,98828.19
2023-05-15T14:56:42.260Z,98824.50
2023-05-15T14:58:16.788Z,98817.38
2023-05-15T14:59:49.845Z,98823.72
2023-05-15T15:01:23.178Z,98830.41
2023-05-15T15:02:56.660Z,98825.63
2023-05-15T15:04:34.103Z,98830.28
2023-05-15T15:06:07.566Z,98827.06
2023-05-15T15:08:01.612Z,98819.72
2023-05-15T15:09:36.166Z,98808.22
2023-05-15T15:11:09.449Z,98817.31
2023-05-15T15:12:42.551Z,98809.34
2023-05-15T15:14:15.798Z,98805.75
2023-05-15T15:15:49.170Z,98792.53
2023-05-15T15:17:22.780Z,98802.28
2023-05-15T15:18:55.987Z,98797.34
2023-05-15T15:20:29.817Z,98792.78
2023-05-15T15:22:03.001Z,98789.78
2023-05-15T15:23:36.278Z,98790.75
2023-05-15T15:25:11.386Z,98784.81
2023-05-15T15:26:44.855Z,98794.09
2023-05-15T15:28:18.002Z,98789.38
2023-05-15T15:29:51.160Z,98793.66
2023-05-15T15:31:24.441Z,98794.47
2023-05-15T15:32:58.072Z,98797.81
2023-05-15T15:34:31.290Z,98798.50
2023-05-15T15:36:04.769Z,98804.53
2023-05-15T15:37:39.127Z,98801.09
2023-05-15T15:39:13.236Z,98796.09
2023-05-15T15:40:47.830Z,98792.22
2023-05-15T15:42:20.952Z,98784.22
2023-05-15T15:43:54.904Z,98781.88
2023-05-15T15:45:28.285Z,98775.94
2023-05-15T15:47:01.603Z,98772.53
2023-05-15T15:48:34.958Z,98776.75
2023-05-15T15:50:09.066Z,98778.31
2023-05-15T15:51:42.516Z,98777.47
2023-05-15T15:53:15.653Z,98775.75
2023-05-15T15:54:48.955Z,98779.00
2023-05-15T15:56:23.569Z,98779.00
2023-05-15T15:57:56.815Z,98768.19
2023-05-15T15:59:30.039Z,98764.09
2023-05-15T16:01:04.285Z,98771.16
2023-05-15T16:02:38.050Z,98765.72
2023-05-15T16:04:11.426Z,98765.41
2023-05-15T16:05:44.706Z,98772.00
2023-05-15T16:07:17.844Z,98774.22
2023-05-15T16:08:50.946Z,98777.63
2023-05-15T16:10:24.378Z,98772.53
2023-05-15T16:11:59.158Z,98774.22
2023-05-15T16:13:32.385Z,98773.53
2023-05-15T16:15:20.992Z,98777.41
2023-05-15T16:16:56.055Z,98782.34
2023-05-15T16:18:29.235Z,98785.34
2023-05-15T16:20:02.422Z,98782.97
2023-05-15T16:21:36.342Z,98796.09
2023-05-15T16:23:11.782Z,98791.97
2023-05-15T16:24:44.895Z,98791.97
2023-05-15T16:26:18.013Z,98798.72
2023-05-15T16:27:52.544Z,98795.63
2023-05-15T16:29:26.486Z,98790.16
2023-05-15T16:31:00.231Z,98792.16
2023-05-15T16:32:34.124Z,98791.44
2023-05-15T16:34:07.501Z,98790.75
2023-05-15T16:35:40.888Z,98799.03
2023-05-15T16:37:14.127Z,98802.03
2023-05-15T16:38:48.006Z,98791.38
2023-05-15T16:40:21.200Z,98787.97
2023-05-15T16:41:54.656Z,98785.59
2023-05-15T16:43:29.181Z,98782.31
2023-05-15T16:45:02.407Z,98778.38
2023-05-15T16:46:35.503Z,98773.31
2023-05-15T16:48:08.984Z,98772.75
2023-05-15T16:49:44.568Z,98766.81
2023-05-15T16:51:18.509Z,98764.03
2023-05-15T16:52:51.860Z,98754.38
2023-05-15T16:54:25.236Z,98759.69
2023-05-15T16:55:58.420Z,98763.03
2023-05-15T16:57:31.675Z,98766.75
2023-05-15T16:59:06.371Z,98772.44
2023-05-15T17:00:39.791Z,98779.28
2023-05-15T17:02:13.073Z,98774.50
2023-05-15T17:03:46.538Z,98779.06
2023-05-15T17:05:19.837Z,98785.22
2023-05-15T17:06:53.117Z,98777.69
2023-05-15T17:08:26.451Z,98783.66
2023-05-15T17:09:59.597Z,98785.69
2023-05-15T17:11:32.721Z,98784.53
2023-05-15T17:13:06.324Z,98780.56
2023-05-15T17:14:40.862Z,98783.41
2023-05-15T17:16:14.097Z,98791.41
2023-05-15T17:17:47.256Z,98795.38
2023-05-15T17:19:20.736Z,98791.56
2023-05-15T17:20:54.012Z,98778.09
2023-05-15T17:22:27.210Z,98773.56
2023-05-15T17:24:01.147Z,98786.09
2023-05-15T17:25:34.445Z,98774.72
2023-05-15T17:27:07.562Z,98771.75
2023-05-15T17:28:41.003Z,98777.81
2023-05-15T17:30:16.078Z,98781.38
2023-05-15T17:31:49.514Z,98784.91
2023-05-15T17:33:22.749Z,98796.53
2023-05-15T17:34:55.902Z,98789.72
2023-05-15T17:36:29.147Z,98794.78
2023-05-15T17:38:02.516Z,98793.97
2023-05-15T17:39:35.732Z,98785.28
2023-05-15T17:41:08.940Z,98777.78
2023-05-15T17:42:42.104Z,98783.72
2023-05-15T17:44:15.388Z,98768.53
2023-05-15T17:45:49.919Z,98758.28
2023-05-15T17:47:23.180Z,98760.09
2023-05-15T17:48:56.326Z,98762.63
2023-05-15T17:50:29.834Z,98764.59
2023-05-15T17:52:03.139Z,98760.16
2023-05-15T17:53:36.370Z,98760.25
2023-05-15T17:55:10.332Z,98763.91
2023-05-15T17:56:43.930Z,98769.53
2023-05-15T17:58:17.131Z,98766.38
2023-05-15T17:59:50.248Z,98775.19
2023-05-15T18:01:24.935Z,98782.69
2023-05-15T18:02:58.332Z,98785.19
2023-05-15T18:04:31.642Z,98794.50
2023-05-15T18:06:04.987Z,98795.19
2023-05-15T18:07:38.173Z,98806.69
2023-05-15T18:09:11.886Z,98808.38
2023-05-15T18:10:45.171Z,98812.75
2023-05-15T18:12:18.270Z,98809.13
2023-05-15T18:13:51.431Z,98818.56
2023-05-15T18:15:25.239Z,98819.63
2023-05-15T18:17:00.016Z,98812.00
2023-05-15T18:18:33.281Z,98810.94
2023-05-15T18:20:07.738Z,98808.75
2023-05-15T18:21:41.052Z,98803.78
2023-05-15T18:23:14.150Z,98802.47
2023-05-15T18:24:47.365Z,98803.56
2023-05-15T18:26:21.341Z,98799.56
2023-05-15T18:27:54.626Z,98807.38
2023-05-15T18:29:27.775Z,98795.63
2023-05-15T18:31:01.086Z,98800.75
2023-05-15T18:32:35.736Z,98793.69
2023-05-15T18:34:08.996Z,98800.88